sensor_id;sensor_type;location;lat;lon;timestamp;P1;durP1;ratioP1;P2;durP2;ratioP2
50092;SDS011;35974;47.752;10.290;2024-03-22T00:00:19;21.23;;;12.80;;
50092;SDS011;35974;47.752;10.290;2024-03-22T00:05:19;22.83;;;14.07;;
50092;SDS011;35974;47.752;10.290;2024-03-22T00:07:46;24.80;;;14.45;;
50092;SDS011;35974;47.752;10.290;2024-03-22T00:10:12;24.05;;;13.68;;
50092;SDS011;35974;47.752;10.290;2024-03-22T00:12:39;21.02;;;12.98;;
50092;SDS011;35974;47.752;10.290;2024-03-22T00:15:05;22.45;;;13.48;;
50092;SDS011;35974;47.752;10.290;2024-03-22T00:17:31;24.98;;;13.88;;
50092;SDS011;35974;47.752;10.290;2024-03-22T00:19:56;21.80;;;13.27;;
50092;SDS011;35974;47.752;10.290;2024-03-22T00:22:22;19.80;;;12.52;;
50092;SDS011;35974;47.752;10.290;2024-03-22T00:24:47;21.25;;;12.43;;
50092;SDS011;35974;47.752;10.290;2024-03-22T00:27:13;22.63;;;13.13;;
50092;SDS011;35974;47.752;10.290;2024-03-22T00:29:38;22.77;;;13.30;;
50092;SDS011;35974;47.752;10.290;2024-03-22T00:32:18;21.58;;;11.82;;
50092;SDS011;35974;47.752;10.290;2024-03-22T00:34:44;22.13;;;13.10;;
50092;SDS011;35974;47.752;10.290;2024-03-22T00:37:10;25.80;;;13.98;;
50092;SDS011;35974;47.752;10.290;2024-03-22T00:39:36;23.15;;;13.15;;
50092;SDS011;35974;47.752;10.290;2024-03-22T00:42:01;23.73;;;12.98;;
50092;SDS011;35974;47.752;10.290;2024-03-22T00:44:27;23.60;;;12.82;;
50092;SDS011;35974;47.752;10.290;2024-03-22T00:46:52;24.27;;;13.40;;
50092;SDS011;35974;47.752;10.290;2024-03-22T00:49:18;21.67;;;12.82;;
50092;SDS011;35974;47.752;10.290;2024-03-22T00:51:43;23.33;;;13.20;;
50092;SDS011;35974;47.752;10.290;2024-03-22T00:54:10;23.40;;;13.27;;
50092;SDS011;35974;47.752;10.290;2024-03-22T00:56:36;22.42;;;13.40;;
50092;SDS011;35974;47.752;10.290;2024-03-22T00:59:02;23.35;;;13.15;;
50092;SDS011;35974;47.752;10.290;2024-03-22T01:01:28;24.55;;;14.00;;
50092;SDS011;35974;47.752;10.290;2024-03-22T01:03:54;23.13;;;13.60;;
50092;SDS011;35974;47.752;10.290;2024-03-22T01:06:20;20.30;;;12.95;;
50092;SDS011;35974;47.752;10.290;2024-03-22T01:09:08;18.70;;;12.27;;
50092;SDS011;35974;47.752;10.290;2024-03-22T01:11:34;22.60;;;13.55;;
50092;SDS011;35974;47.752;10.290;2024-03-22T01:13:59;20.77;;;12.32;;
50092;SDS011;35974;47.752;10.290;2024-03-22T01:16:25;22.83;;;13.10;;
50092;SDS011;35974;47.752;10.290;2024-03-22T01:18:50;22.63;;;12.93;;
50092;SDS011;35974;47.752;10.290;2024-03-22T01:21:16;21.13;;;12.38;;
50092;SDS011;35974;47.752;10.290;2024-03-22T01:23:41;22.70;;;13.65;;
50092;SDS011;35974;47.752;10.290;2024-03-22T01:26:07;26.60;;;14.15;;
50092;SDS011;35974;47.752;10.290;2024-03-22T01:28:33;20.75;;;13.20;;
50092;SDS011;35974;47.752;10.290;2024-03-22T01:30:58;20.83;;;12.93;;
50092;SDS011;35974;47.752;10.290;2024-03-22T01:33:24;26.45;;;13.77;;
50092;SDS011;35974;47.752;10.290;2024-03-22T01:35:49;24.45;;;13.68;;
50092;SDS011;35974;47.752;10.290;2024-03-22T01:41:02;24.42;;;14.20;;
50092;SDS011;35974;47.752;10.290;2024-03-22T01:43:28;25.27;;;14.52;;
50092;SDS011;35974;47.752;10.290;2024-03-22T01:45:53;25.20;;;15.20;;
50092;SDS011;35974;47.752;10.290;2024-03-22T01:48:19;27.52;;;15.73;;
50092;SDS011;35974;47.752;10.290;2024-03-22T01:53:23;28.65;;;15.95;;
50092;SDS011;35974;47.752;10.290;2024-03-22T01:55:48;30.67;;;16.33;;
50092;SDS011;35974;47.752;10.290;2024-03-22T01:58:14;29.30;;;15.77;;
50092;SDS011;35974;47.752;10.290;2024-03-22T02:00:40;29.63;;;15.88;;
50092;SDS011;35974;47.752;10.290;2024-03-22T02:03:19;25.27;;;14.45;;
50092;SDS011;35974;47.752;10.290;2024-03-22T02:05:44;27.17;;;14.90;;
50092;SDS011;35974;47.752;10.290;2024-03-22T02:08:10;30.58;;;15.80;;
50092;SDS011;35974;47.752;10.290;2024-03-22T02:10:35;23.55;;;13.27;;
50092;SDS011;35974;47.752;10.290;2024-03-22T02:13:01;24.27;;;14.32;;
50092;SDS011;35974;47.752;10.290;2024-03-22T02:15:26;24.33;;;13.88;;
50092;SDS011;35974;47.752;10.290;2024-03-22T02:18:00;27.08;;;14.43;;
50092;SDS011;35974;47.752;10.290;2024-03-22T02:20:26;25.65;;;14.07;;
50092;SDS011;35974;47.752;10.290;2024-03-22T02:22:51;26.48;;;14.32;;
50092;SDS011;35974;47.752;10.290;2024-03-22T02:25:17;26.77;;;14.77;;
50092;SDS011;35974;47.752;10.290;2024-03-22T02:27:42;23.05;;;13.13;;
50092;SDS011;35974;47.752;10.290;2024-03-22T02:30:08;26.52;;;14.07;;
50092;SDS011;35974;47.752;10.290;2024-03-22T02:32:45;27.45;;;14.98;;
50092;SDS011;35974;47.752;10.290;2024-03-22T02:35:10;27.75;;;15.07;;
50092;SDS011;35974;47.752;10.290;2024-03-22T02:37:36;23.80;;;13.30;;
50092;SDS011;35974;47.752;10.290;2024-03-22T02:40:02;21.27;;;12.50;;
50092;SDS011;35974;47.752;10.290;2024-03-22T02:42:27;21.13;;;12.75;;
50092;SDS011;35974;47.752;10.290;2024-03-22T02:44:53;23.58;;;13.45;;
50092;SDS011;35974;47.752;10.290;2024-03-22T02:47:18;24.63;;;13.82;;
50092;SDS011;35974;47.752;10.290;2024-03-22T02:49:44;24.98;;;14.50;;
50092;SDS011;35974;47.752;10.290;2024-03-22T02:52:10;25.13;;;14.75;;
50092;SDS011;35974;47.752;10.290;2024-03-22T02:54:35;27.70;;;14.90;;
50092;SDS011;35974;47.752;10.290;2024-03-22T02:57:01;25.67;;;14.85;;
50092;SDS011;35974;47.752;10.290;2024-03-22T02:59:27;24.90;;;14.68;;
50092;SDS011;35974;47.752;10.290;2024-03-22T03:01:53;27.08;;;15.15;;
50092;SDS011;35974;47.752;10.290;2024-03-22T03:04:19;25.52;;;14.30;;
50092;SDS011;35974;47.752;10.290;2024-03-22T03:06:45;26.88;;;14.25;;
50092;SDS011;35974;47.752;10.290;2024-03-22T03:09:14;23.48;;;13.35;;
50092;SDS011;35974;47.752;10.290;2024-03-22T03:11:40;24.95;;;13.55;;
50092;SDS011;35974;47.752;10.290;2024-03-22T03:14:06;22.65;;;12.57;;
50092;SDS011;35974;47.752;10.290;2024-03-22T03:16:31;22.35;;;12.65;;
50092;SDS011;35974;47.752;10.290;2024-03-22T03:18:57;21.40;;;12.57;;
50092;SDS011;35974;47.752;10.290;2024-03-22T03:21:23;25.17;;;11.88;;
50092;SDS011;35974;47.752;10.290;2024-03-22T03:23:48;20.38;;;11.40;;
50092;SDS011;35974;47.752;10.290;2024-03-22T03:26:14;20.30;;;11.82;;
50092;SDS011;35974;47.752;10.290;2024-03-22T03:28:39;19.52;;;11.95;;
50092;SDS011;35974;47.752;10.290;2024-03-22T03:31:05;19.70;;;11.68;;
50092;SDS011;35974;47.752;10.290;2024-03-22T03:33:30;24.92;;;11.90;;
50092;SDS011;35974;47.752;10.290;2024-03-22T03:35:56;26.23;;;12.55;;
50092;SDS011;35974;47.752;10.290;2024-03-22T03:38:21;18.70;;;10.85;;
50092;SDS011;35974;47.752;10.290;2024-03-22T03:40:47;18.33;;;10.40;;
50092;SDS011;35974;47.752;10.290;2024-03-22T03:43:13;20.23;;;11.82;;
50092;SDS011;35974;47.752;10.290;2024-03-22T03:45:39;19.55;;;10.30;;
50092;SDS011;35974;47.752;10.290;2024-03-22T03:48:05;17.55;;;10.27;;
50092;SDS011;35974;47.752;10.290;2024-03-22T03:50:30;18.27;;;10.00;;
50092;SDS011;35974;47.752;10.290;2024-03-22T03:52:56;17.40;;;9.55;;
50092;SDS011;35974;47.752;10.290;2024-03-22T03:55:22;19.27;;;9.93;;
50092;SDS011;35974;47.752;10.290;2024-03-22T03:57:50;16.27;;;9.02;;
50092;SDS011;35974;47.752;10.290;2024-03-22T04:00:16;18.83;;;10.98;;
50092;SDS011;35974;47.752;10.290;2024-03-22T04:02:43;15.57;;;9.80;;
50092;SDS011;35974;47.752;10.290;2024-03-22T04:05:08;16.25;;;9.73;;
50092;SDS011;35974;47.752;10.290;2024-03-22T04:07:34;16.73;;;9.20;;
50092;SDS011;35974;47.752;10.290;2024-03-22T04:09:59;16.45;;;9.50;;
50092;SDS011;35974;47.752;10.290;2024-03-22T04:12:28;17.55;;;9.70;;
50092;SDS011;35974;47.752;10.290;2024-03-22T04:14:54;17.20;;;9.70;;
50092;SDS011;35974;47.752;10.290;2024-03-22T04:17:19;15.00;;;8.88;;
50092;SDS011;35974;47.752;10.290;2024-03-22T04:19:46;14.75;;;9.18;;
50092;SDS011;35974;47.752;10.290;2024-03-22T04:22:14;16.80;;;9.25;;
50092;SDS011;35974;47.752;10.290;2024-03-22T04:24:40;15.52;;;9.30;;
50092;SDS011;35974;47.752;10.290;2024-03-22T04:27:05;16.90;;;9.77;;
50092;SDS011;35974;47.752;10.290;2024-03-22T04:29:32;15.50;;;9.57;;
50092;SDS011;35974;47.752;10.290;2024-03-22T04:32:01;16.15;;;9.43;;
50092;SDS011;35974;47.752;10.290;2024-03-22T04:34:27;16.17;;;9.88;;
50092;SDS011;35974;47.752;10.290;2024-03-22T04:36:52;17.15;;;9.48;;
50092;SDS011;35974;47.752;10.290;2024-03-22T04:39:25;19.58;;;9.18;;
50092;SDS011;35974;47.752;10.290;2024-03-22T04:41:50;18.05;;;9.50;;
50092;SDS011;35974;47.752;10.290;2024-03-22T04:44:16;15.57;;;9.07;;
50092;SDS011;35974;47.752;10.290;2024-03-22T04:46:41;20.85;;;10.27;;
50092;SDS011;35974;47.752;10.290;2024-03-22T04:49:07;16.23;;;9.38;;
50092;SDS011;35974;47.752;10.290;2024-03-22T04:51:32;19.70;;;10.15;;
50092;SDS011;35974;47.752;10.290;2024-03-22T04:53:58;21.85;;;10.50;;
50092;SDS011;35974;47.752;10.290;2024-03-22T04:56:24;19.63;;;11.10;;
50092;SDS011;35974;47.752;10.290;2024-03-22T04:58:50;17.27;;;8.82;;
50092;SDS011;35974;47.752;10.290;2024-03-22T05:01:15;17.73;;;9.55;;
50092;SDS011;35974;47.752;10.290;2024-03-22T05:03:41;20.00;;;10.05;;
50092;SDS011;35974;47.752;10.290;2024-03-22T05:06:06;21.60;;;9.80;;
50092;SDS011;35974;47.752;10.290;2024-03-22T05:08:36;16.20;;;9.20;;
50092;SDS011;35974;47.752;10.290;2024-03-22T05:11:01;17.17;;;8.98;;
50092;SDS011;35974;47.752;10.290;2024-03-22T05:13:28;16.02;;;8.70;;
50092;SDS011;35974;47.752;10.290;2024-03-22T05:15:53;16.02;;;8.38;;
50092;SDS011;35974;47.752;10.290;2024-03-22T05:18:19;17.48;;;8.52;;
50092;SDS011;35974;47.752;10.290;2024-03-22T05:20:44;12.05;;;8.13;;
50092;SDS011;35974;47.752;10.290;2024-03-22T05:23:10;17.52;;;9.50;;
50092;SDS011;35974;47.752;10.290;2024-03-22T05:25:35;16.30;;;8.48;;
50092;SDS011;35974;47.752;10.290;2024-03-22T05:28:01;15.00;;;8.55;;
50092;SDS011;35974;47.752;10.290;2024-03-22T05:30:27;16.88;;;8.57;;
50092;SDS011;35974;47.752;10.290;2024-03-22T05:32:52;12.88;;;8.10;;
50092;SDS011;35974;47.752;10.290;2024-03-22T05:35:18;14.60;;;8.00;;
50092;SDS011;35974;47.752;10.290;2024-03-22T05:37:43;13.93;;;8.63;;
50092;SDS011;35974;47.752;10.290;2024-03-22T05:40:09;13.02;;;7.90;;
50092;SDS011;35974;47.752;10.290;2024-03-22T05:42:36;18.75;;;8.10;;
50092;SDS011;35974;47.752;10.290;2024-03-22T05:45:02;13.77;;;8.15;;
50092;SDS011;35974;47.752;10.290;2024-03-22T05:47:29;15.40;;;8.95;;
50092;SDS011;35974;47.752;10.290;2024-03-22T05:49:56;14.82;;;8.75;;
50092;SDS011;35974;47.752;10.290;2024-03-22T05:52:31;17.67;;;8.40;;
50092;SDS011;35974;47.752;10.290;2024-03-22T05:54:58;14.73;;;8.52;;
50092;SDS011;35974;47.752;10.290;2024-03-22T05:57:28;15.35;;;8.70;;
50092;SDS011;35974;47.752;10.290;2024-03-22T05:59:55;12.85;;;7.80;;
50092;SDS011;35974;47.752;10.290;2024-03-22T06:02:26;12.82;;;7.85;;
50092;SDS011;35974;47.752;10.290;2024-03-22T06:04:57;12.68;;;7.47;;
50092;SDS011;35974;47.752;10.290;2024-03-22T06:07:27;12.55;;;8.15;;
50092;SDS011;35974;47.752;10.290;2024-03-22T06:09:53;13.38;;;7.65;;
50092;SDS011;35974;47.752;10.290;2024-03-22T06:12:35;12.35;;;7.53;;
50092;SDS011;35974;47.752;10.290;2024-03-22T06:15:07;22.48;;;11.93;;
50092;SDS011;35974;47.752;10.290;2024-03-22T06:17:34;32.97;;;16.17;;
50092;SDS011;35974;47.752;10.290;2024-03-22T06:20:00;54.08;;;23.17;;
50092;SDS011;35974;47.752;10.290;2024-03-22T06:22:26;26.08;;;13.45;;
50092;SDS011;35974;47.752;10.290;2024-03-22T06:24:52;20.48;;;11.50;;
50092;SDS011;35974;47.752;10.290;2024-03-22T06:27:18;19.20;;;10.38;;
50092;SDS011;35974;47.752;10.290;2024-03-22T06:29:45;19.92;;;11.02;;
50092;SDS011;35974;47.752;10.290;2024-03-22T06:32:11;20.13;;;10.63;;
50092;SDS011;35974;47.752;10.290;2024-03-22T06:34:37;15.13;;;10.02;;
50092;SDS011;35974;47.752;10.290;2024-03-22T06:37:03;16.95;;;9.27;;
50092;SDS011;35974;47.752;10.290;2024-03-22T06:39:29;17.30;;;9.75;;
50092;SDS011;35974;47.752;10.290;2024-03-22T06:42:10;15.77;;;9.35;;
50092;SDS011;35974;47.752;10.290;2024-03-22T06:44:36;15.35;;;9.77;;
50092;SDS011;35974;47.752;10.290;2024-03-22T06:47:01;14.90;;;9.15;;
50092;SDS011;35974;47.752;10.290;2024-03-22T06:49:27;16.90;;;10.95;;
50092;SDS011;35974;47.752;10.290;2024-03-22T06:51:52;17.10;;;10.77;;
50092;SDS011;35974;47.752;10.290;2024-03-22T06:54:18;16.27;;;11.05;;
50092;SDS011;35974;47.752;10.290;2024-03-22T06:56:43;18.90;;;12.23;;
50092;SDS011;35974;47.752;10.290;2024-03-22T06:59:09;19.58;;;11.38;;
50092;SDS011;35974;47.752;10.290;2024-03-22T07:01:34;19.15;;;11.23;;
50092;SDS011;35974;47.752;10.290;2024-03-22T07:04:00;16.30;;;10.50;;
50092;SDS011;35974;47.752;10.290;2024-03-22T07:06:25;16.92;;;10.82;;
50092;SDS011;35974;47.752;10.290;2024-03-22T07:08:51;17.40;;;11.20;;
50092;SDS011;35974;47.752;10.290;2024-03-22T07:11:16;22.77;;;12.45;;
50092;SDS011;35974;47.752;10.290;2024-03-22T07:13:42;20.27;;;11.50;;
50092;SDS011;35974;47.752;10.290;2024-03-22T07:16:07;18.45;;;12.65;;
50092;SDS011;35974;47.752;10.290;2024-03-22T07:18:33;19.00;;;12.05;;
50092;SDS011;35974;47.752;10.290;2024-03-22T07:20:58;17.67;;;11.93;;
50092;SDS011;35974;47.752;10.290;2024-03-22T07:23:26;18.27;;;12.02;;
50092;SDS011;35974;47.752;10.290;2024-03-22T07:25:52;19.23;;;11.90;;
50092;SDS011;35974;47.752;10.290;2024-03-22T07:28:18;23.13;;;12.63;;
50092;SDS011;35974;47.752;10.290;2024-03-22T07:30:43;17.60;;;11.32;;
50092;SDS011;35974;47.752;10.290;2024-03-22T07:33:10;18.13;;;11.95;;
50092;SDS011;35974;47.752;10.290;2024-03-22T07:35:39;20.15;;;13.02;;
50092;SDS011;35974;47.752;10.290;2024-03-22T07:38:05;20.83;;;13.05;;
50092;SDS011;35974;47.752;10.290;2024-03-22T07:40:30;22.35;;;13.10;;
50092;SDS011;35974;47.752;10.290;2024-03-22T07:42:56;18.90;;;12.75;;
50092;SDS011;35974;47.752;10.290;2024-03-22T07:45:21;20.02;;;12.63;;
50092;SDS011;35974;47.752;10.290;2024-03-22T07:47:51;16.60;;;10.98;;
50092;SDS011;35974;47.752;10.290;2024-03-22T07:50:16;14.65;;;10.70;;
50092;SDS011;35974;47.752;10.290;2024-03-22T07:52:42;18.55;;;10.95;;
50092;SDS011;35974;47.752;10.290;2024-03-22T07:55:08;16.23;;;10.80;;
50092;SDS011;35974;47.752;10.290;2024-03-22T07:57:33;16.10;;;10.13;;
50092;SDS011;35974;47.752;10.290;2024-03-22T07:59:59;16.50;;;10.45;;
50092;SDS011;35974;47.752;10.290;2024-03-22T08:02:24;15.80;;;10.90;;
50092;SDS011;35974;47.752;10.290;2024-03-22T08:04:50;17.23;;;9.93;;
50092;SDS011;35974;47.752;10.290;2024-03-22T08:07:15;13.18;;;8.43;;
50092;SDS011;35974;47.752;10.290;2024-03-22T08:09:41;16.08;;;10.38;;
50092;SDS011;35974;47.752;10.290;2024-03-22T08:12:07;15.32;;;9.50;;
50092;SDS011;35974;47.752;10.290;2024-03-22T08:14:33;15.07;;;10.10;;
50092;SDS011;35974;47.752;10.290;2024-03-22T08:16:58;14.65;;;9.73;;
50092;SDS011;35974;47.752;10.290;2024-03-22T08:19:24;12.80;;;9.15;;
50092;SDS011;35974;47.752;10.290;2024-03-22T08:21:49;10.18;;;7.70;;
50092;SDS011;35974;47.752;10.290;2024-03-22T08:24:15;12.40;;;8.13;;
50092;SDS011;35974;47.752;10.290;2024-03-22T08:26:40;9.77;;;7.40;;
50092;SDS011;35974;47.752;10.290;2024-03-22T08:29:06;12.52;;;8.48;;
50092;SDS011;35974;47.752;10.290;2024-03-22T08:31:31;14.43;;;8.30;;
50092;SDS011;35974;47.752;10.290;2024-03-22T08:33:56;14.02;;;9.13;;
50092;SDS011;35974;47.752;10.290;2024-03-22T08:38:49;7.20;;;5.60;;
50092;SDS011;35974;47.752;10.290;2024-03-22T08:41:14;9.50;;;6.72;;
50092;SDS011;35974;47.752;10.290;2024-03-22T08:46:05;9.30;;;6.40;;
50092;SDS011;35974;47.752;10.290;2024-03-22T08:48:31;12.38;;;7.80;;
50092;SDS011;35974;47.752;10.290;2024-03-22T08:50:56;10.02;;;5.70;;
50092;SDS011;35974;47.752;10.290;2024-03-22T08:55:47;6.85;;;5.22;;
50092;SDS011;35974;47.752;10.290;2024-03-22T08:58:14;11.98;;;5.45;;
50092;SDS011;35974;47.752;10.290;2024-03-22T09:00:43;9.48;;;5.38;;
50092;SDS011;35974;47.752;10.290;2024-03-22T09:03:09;8.85;;;5.07;;
50092;SDS011;35974;47.752;10.290;2024-03-22T09:05:34;5.50;;;3.95;;
50092;SDS011;35974;47.752;10.290;2024-03-22T09:08:00;7.88;;;4.90;;
50092;SDS011;35974;47.752;10.290;2024-03-22T09:12:51;4.90;;;3.35;;
50092;SDS011;35974;47.752;10.290;2024-03-22T09:15:17;5.70;;;4.00;;
50092;SDS011;35974;47.752;10.290;2024-03-22T09:17:43;12.82;;;5.53;;
50092;SDS011;35974;47.752;10.290;2024-03-22T09:20:08;9.02;;;5.20;;
50092;SDS011;35974;47.752;10.290;2024-03-22T09:22:39;7.25;;;3.95;;
50092;SDS011;35974;47.752;10.290;2024-03-22T09:25:05;6.50;;;3.85;;
50092;SDS011;35974;47.752;10.290;2024-03-22T09:27:32;6.60;;;4.00;;
50092;SDS011;35974;47.752;10.290;2024-03-22T09:32:23;6.68;;;1.83;;
50092;SDS011;35974;47.752;10.290;2024-03-22T09:34:49;3.50;;;1.85;;
50092;SDS011;35974;47.752;10.290;2024-03-22T09:37:17;4.57;;;1.67;;
50092;SDS011;35974;47.752;10.290;2024-03-22T09:42:10;4.47;;;1.63;;
50092;SDS011;35974;47.752;10.290;2024-03-22T09:44:40;3.55;;;1.52;;
50092;SDS011;35974;47.752;10.290;2024-03-22T09:47:13;3.03;;;1.55;;
50092;SDS011;35974;47.752;10.290;2024-03-22T09:49:43;4.78;;;1.77;;
50092;SDS011;35974;47.752;10.290;2024-03-22T09:52:14;5.53;;;1.75;;
50092;SDS011;35974;47.752;10.290;2024-03-22T09:54:42;6.70;;;2.03;;
50092;SDS011;35974;47.752;10.290;2024-03-22T09:57:18;4.45;;;1.60;;
50092;SDS011;35974;47.752;10.290;2024-03-22T09:59:45;3.75;;;1.38;;
50092;SDS011;35974;47.752;10.290;2024-03-22T10:02:11;3.55;;;1.63;;
50092;SDS011;35974;47.752;10.290;2024-03-22T10:07:07;1.95;;;1.35;;
50092;SDS011;35974;47.752;10.290;2024-03-22T10:09:36;2.95;;;1.40;;
50092;SDS011;35974;47.752;10.290;2024-03-22T10:12:03;3.42;;;1.30;;
50092;SDS011;35974;47.752;10.290;2024-03-22T10:14:29;7.18;;;1.65;;
50092;SDS011;35974;47.752;10.290;2024-03-22T10:16:56;4.40;;;1.67;;
50092;SDS011;35974;47.752;10.290;2024-03-22T10:22:01;3.20;;;1.40;;
50092;SDS011;35974;47.752;10.290;2024-03-22T10:24:28;3.20;;;1.35;;
50092;SDS011;35974;47.752;10.290;2024-03-22T10:26:54;4.80;;;1.40;;
50092;SDS011;35974;47.752;10.290;2024-03-22T10:31:45;3.47;;;1.33;;
50092;SDS011;35974;47.752;10.290;2024-03-22T10:34:13;3.28;;;1.30;;
50092;SDS011;35974;47.752;10.290;2024-03-22T10:36:40;2.13;;;1.40;;
50092;SDS011;35974;47.752;10.290;2024-03-22T10:39:06;2.15;;;1.23;;
50092;SDS011;35974;47.752;10.290;2024-03-22T10:41:34;1.92;;;1.05;;
50092;SDS011;35974;47.752;10.290;2024-03-22T10:46:29;1.35;;;0.90;;
50092;SDS011;35974;47.752;10.290;2024-03-22T10:48:56;1.77;;;1.10;;
50092;SDS011;35974;47.752;10.290;2024-03-22T10:51:23;3.10;;;1.50;;
50092;SDS011;35974;47.752;10.290;2024-03-22T10:53:51;2.20;;;1.45;;
50092;SDS011;35974;47.752;10.290;2024-03-22T10:56:19;3.33;;;1.33;;
50092;SDS011;35974;47.752;10.290;2024-03-22T10:58:48;3.50;;;1.15;;
50092;SDS011;35974;47.752;10.290;2024-03-22T11:01:25;3.88;;;1.70;;
50092;SDS011;35974;47.752;10.290;2024-03-22T11:03:51;3.30;;;1.38;;
50092;SDS011;35974;47.752;10.290;2024-03-22T11:06:28;2.92;;;1.40;;
50092;SDS011;35974;47.752;10.290;2024-03-22T11:08:58;2.67;;;1.40;;
50092;SDS011;35974;47.752;10.290;2024-03-22T11:11:29;1.13;;;1.00;;
50092;SDS011;35974;47.752;10.290;2024-03-22T11:13:56;2.67;;;1.10;;
50092;SDS011;35974;47.752;10.290;2024-03-22T11:16:22;3.13;;;1.17;;
50092;SDS011;35974;47.752;10.290;2024-03-22T11:21:15;3.40;;;1.30;;
50092;SDS011;35974;47.752;10.290;2024-03-22T11:26:06;4.78;;;1.60;;
50092;SDS011;35974;47.752;10.290;2024-03-22T11:28:34;1.77;;;1.40;;
50092;SDS011;35974;47.752;10.290;2024-03-22T11:31:02;2.80;;;1.13;;
50092;SDS011;35974;47.752;10.290;2024-03-22T11:36:04;3.35;;;1.55;;
50092;SDS011;35974;47.752;10.290;2024-03-22T11:38:32;5.65;;;1.40;;
50092;SDS011;35974;47.752;10.290;2024-03-22T11:41:11;3.97;;;1.40;;
50092;SDS011;35974;47.752;10.290;2024-03-22T11:43:52;2.38;;;1.30;;
50092;SDS011;35974;47.752;10.290;2024-03-22T11:46:21;4.05;;;1.80;;
50092;SDS011;35974;47.752;10.290;2024-03-22T11:48:51;2.33;;;1.05;;
50092;SDS011;35974;47.752;10.290;2024-03-22T11:51:30;2.88;;;1.00;;
50092;SDS011;35974;47.752;10.290;2024-03-22T11:53:56;3.20;;;1.40;;
50092;SDS011;35974;47.752;10.290;2024-03-22T11:58:58;4.88;;;1.08;;
50092;SDS011;35974;47.752;10.290;2024-03-22T12:01:37;4.90;;;1.55;;
50092;SDS011;35974;47.752;10.290;2024-03-22T12:04:03;2.45;;;1.50;;
50092;SDS011;35974;47.752;10.290;2024-03-22T12:09:02;4.57;;;1.25;;
50092;SDS011;35974;47.752;10.290;2024-03-22T12:11:38;2.08;;;1.45;;
50092;SDS011;35974;47.752;10.290;2024-03-22T12:14:06;2.38;;;1.30;;
50092;SDS011;35974;47.752;10.290;2024-03-22T12:16:34;1.30;;;1.20;;
50092;SDS011;35974;47.752;10.290;2024-03-22T12:21:49;4.10;;;1.52;;
50092;SDS011;35974;47.752;10.290;2024-03-22T12:24:15;2.63;;;1.55;;
50092;SDS011;35974;47.752;10.290;2024-03-22T12:26:50;3.65;;;1.10;;
50092;SDS011;35974;47.752;10.290;2024-03-22T12:29:16;5.25;;;1.20;;
50092;SDS011;35974;47.752;10.290;2024-03-22T12:31:42;3.72;;;1.30;;
50092;SDS011;35974;47.752;10.290;2024-03-22T12:34:09;2.72;;;1.10;;
50092;SDS011;35974;47.752;10.290;2024-03-22T12:36:35;2.35;;;1.30;;
50092;SDS011;35974;47.752;10.290;2024-03-22T12:39:01;2.13;;;0.90;;
50092;SDS011;35974;47.752;10.290;2024-03-22T12:41:28;2.03;;;1.30;;
50092;SDS011;35974;47.752;10.290;2024-03-22T12:47:15;2.08;;;1.00;;
50092;SDS011;35974;47.752;10.290;2024-03-22T12:49:46;1.90;;;1.27;;
50092;SDS011;35974;47.752;10.290;2024-03-22T12:52:18;2.72;;;1.30;;
50092;SDS011;35974;47.752;10.290;2024-03-22T12:54:43;2.92;;;1.13;;
50092;SDS011;35974;47.752;10.290;2024-03-22T12:57:09;3.45;;;1.10;;
50092;SDS011;35974;47.752;10.290;2024-03-22T12:59:38;3.05;;;1.23;;
50092;SDS011;35974;47.752;10.290;2024-03-22T13:02:08;1.90;;;1.20;;
50092;SDS011;35974;47.752;10.290;2024-03-22T13:04:42;4.60;;;1.42;;
50092;SDS011;35974;47.752;10.290;2024-03-22T13:07:16;2.78;;;1.25;;
50092;SDS011;35974;47.752;10.290;2024-03-22T13:09:47;2.33;;;1.35;;
50092;SDS011;35974;47.752;10.290;2024-03-22T13:12:20;1.98;;;1.15;;
50092;SDS011;35974;47.752;10.290;2024-03-22T13:14:51;3.17;;;1.42;;
50092;SDS011;35974;47.752;10.290;2024-03-22T13:17:20;1.77;;;1.00;;
50092;SDS011;35974;47.752;10.290;2024-03-22T13:19:47;3.17;;;1.08;;
50092;SDS011;35974;47.752;10.290;2024-03-22T13:22:14;2.75;;;1.10;;
50092;SDS011;35974;47.752;10.290;2024-03-22T13:24:44;2.92;;;1.08;;
50092;SDS011;35974;47.752;10.290;2024-03-22T13:27:11;2.20;;;1.02;;
50092;SDS011;35974;47.752;10.290;2024-03-22T13:29:42;3.25;;;1.25;;
50092;SDS011;35974;47.752;10.290;2024-03-22T13:32:08;4.90;;;1.30;;
50092;SDS011;35974;47.752;10.290;2024-03-22T13:34:34;3.70;;;1.38;;
50092;SDS011;35974;47.752;10.290;2024-03-22T13:37:01;2.33;;;1.50;;
50092;SDS011;35974;47.752;10.290;2024-03-22T13:39:27;3.38;;;1.80;;
50092;SDS011;35974;47.752;10.290;2024-03-22T13:41:55;3.53;;;1.60;;
50092;SDS011;35974;47.752;10.290;2024-03-22T13:44:23;2.28;;;1.20;;
50092;SDS011;35974;47.752;10.290;2024-03-22T13:46:53;2.30;;;1.40;;
50092;SDS011;35974;47.752;10.290;2024-03-22T13:49:20;2.17;;;1.52;;
50092;SDS011;35974;47.752;10.290;2024-03-22T13:51:50;2.25;;;1.27;;
50092;SDS011;35974;47.752;10.290;2024-03-22T13:54:15;3.92;;;1.55;;
50092;SDS011;35974;47.752;10.290;2024-03-22T13:56:41;3.10;;;1.30;;
50092;SDS011;35974;47.752;10.290;2024-03-22T13:59:08;3.20;;;1.30;;
50092;SDS011;35974;47.752;10.290;2024-03-22T14:01:35;2.00;;;1.38;;
50092;SDS011;35974;47.752;10.290;2024-03-22T14:04:13;2.67;;;1.40;;
50092;SDS011;35974;47.752;10.290;2024-03-22T14:06:41;3.60;;;1.35;;
50092;SDS011;35974;47.752;10.290;2024-03-22T14:09:14;2.20;;;1.40;;
50092;SDS011;35974;47.752;10.290;2024-03-22T14:11:44;2.45;;;1.30;;
50092;SDS011;35974;47.752;10.290;2024-03-22T14:14:12;2.58;;;1.25;;
50092;SDS011;35974;47.752;10.290;2024-03-22T14:16:39;5.38;;;1.13;;
50092;SDS011;35974;47.752;10.290;2024-03-22T14:19:06;2.55;;;1.80;;
50092;SDS011;35974;47.752;10.290;2024-03-22T14:21:41;2.58;;;1.40;;
50092;SDS011;35974;47.752;10.290;2024-03-22T14:24:07;3.83;;;1.60;;
50092;SDS011;35974;47.752;10.290;2024-03-22T14:26:35;4.82;;;1.90;;
50092;SDS011;35974;47.752;10.290;2024-03-22T14:29:07;2.78;;;1.50;;
50092;SDS011;35974;47.752;10.290;2024-03-22T14:31:36;3.63;;;1.45;;
50092;SDS011;35974;47.752;10.290;2024-03-22T14:34:04;3.17;;;1.20;;
50092;SDS011;35974;47.752;10.290;2024-03-22T14:36:31;5.47;;;1.50;;
50092;SDS011;35974;47.752;10.290;2024-03-22T14:38:57;5.18;;;1.45;;
50092;SDS011;35974;47.752;10.290;2024-03-22T14:41:23;3.45;;;1.50;;
50092;SDS011;35974;47.752;10.290;2024-03-22T14:43:49;3.05;;;1.30;;
50092;SDS011;35974;47.752;10.290;2024-03-22T14:46:14;2.60;;;1.30;;
50092;SDS011;35974;47.752;10.290;2024-03-22T14:48:42;1.88;;;1.20;;
50092;SDS011;35974;47.752;10.290;2024-03-22T14:51:09;2.10;;;1.15;;
50092;SDS011;35974;47.752;10.290;2024-03-22T14:53:36;2.38;;;1.20;;
50092;SDS011;35974;47.752;10.290;2024-03-22T14:56:03;2.20;;;1.10;;
50092;SDS011;35974;47.752;10.290;2024-03-22T14:58:33;2.55;;;1.02;;
50092;SDS011;35974;47.752;10.290;2024-03-22T15:01:02;1.88;;;1.25;;
50092;SDS011;35974;47.752;10.290;2024-03-22T15:03:29;1.67;;;1.02;;
50092;SDS011;35974;47.752;10.290;2024-03-22T15:08:25;2.65;;;1.27;;
50092;SDS011;35974;47.752;10.290;2024-03-22T15:10:51;1.85;;;1.17;;
50092;SDS011;35974;47.752;10.290;2024-03-22T15:13:17;2.35;;;1.10;;